createdAt,value
2018-07-22T00:00:02.604Z,56.40
2018-07-22T00:02:30.854Z,56.50
2018-07-22T00:04:59.086Z,56.60
2018-07-22T00:07:27.372Z,56.70
2018-07-22T00:09:55.588Z,56.80
2018-07-22T00:12:23.896Z,56.90
2018-07-22T00:14:52.141Z,57.00
2018-07-22T00:17:20.367Z,57.20
2018-07-22T00:19:48.598Z,58.10
2018-07-22T00:22:16.837Z,57.40
2018-07-22T00:24:45.137Z,57.60
2018-07-22T00:27:13.433Z,58.10
2018-07-22T00:29:41.667Z,58.30
2018-07-22T00:32:09.936Z,58.60
2018-07-22T00:34:38.147Z,59.30
2018-07-22T00:37:06.497Z,59.70
2018-07-22T00:39:34.809Z,60.20
2018-07-22T00:42:03.172Z,61.60
2018-07-22T00:44:31.720Z,60.90
2018-07-22T00:46:59.939Z,61.40
2018-07-22T00:49:28.171Z,61.40
2018-07-22T00:51:56.397Z,61.90
2018-07-22T00:54:24.633Z,61.30
2018-07-22T00:56:52.841Z,60.90
2018-07-22T00:59:21.072Z,61.50
2018-07-22T01:01:49.302Z,61.40
2018-07-22T01:04:17.587Z,61.90
2018-07-22T01:06:45.843Z,61.60
2018-07-22T01:09:14.123Z,62.20
2018-07-22T01:11:42.330Z,63.70
2018-07-22T01:14:10.584Z,63.50
2018-07-22T01:16:38.831Z,62.90
2018-07-22T01:19:07.045Z,62.80
2018-07-22T01:21:35.277Z,63.10
2018-07-22T01:24:03.565Z,62.80
2018-07-22T01:26:31.968Z,63.40
2018-07-22T01:29:00.275Z,63.10
2018-07-22T01:31:28.536Z,64.10
2018-07-22T01:33:56.795Z,65.90
2018-07-22T01:36:25.073Z,64.50
2018-07-22T01:38:53.347Z,65.60
2018-07-22T01:41:21.623Z,65.10
2018-07-22T01:43:49.854Z,66.80
2018-07-22T01:46:18.125Z,68.40
2018-07-22T01:48:46.360Z,66.80
2018-07-22T01:51:14.643Z,67.00
2018-07-22T01:53:42.865Z,66.70
2018-07-22T01:56:11.147Z,66.60
2018-07-22T01:58:45.969Z,66.70
2018-07-22T02:01:14.328Z,66.20
2018-07-22T02:03:42.608Z,66.70
2018-07-22T02:06:10.869Z,66.90
2018-07-22T02:08:39.089Z,69.20
2018-07-22T02:11:07.304Z,67.30
2018-07-22T02:13:35.572Z,67.70
2018-07-22T02:16:03.864Z,68.40
2018-07-22T02:18:32.104Z,69.00
2018-07-22T02:21:00.344Z,69.00
2018-07-22T02:23:28.673Z,68.20
2018-07-22T02:25:57.885Z,68.60
2018-07-22T02:28:26.153Z,68.10
2018-07-22T02:30:57.473Z,68.60
2018-07-22T02:33:25.693Z,69.40
2018-07-22T02:35:53.968Z,68.90
2018-07-22T02:38:22.246Z,68.60
2018-07-22T02:40:50.754Z,69.20
2018-07-22T02:43:19.010Z,69.50
2018-07-22T02:45:47.258Z,69.00
2018-07-22T02:48:15.535Z,69.40
2018-07-22T02:50:43.800Z,69.20
2018-07-22T02:53:12.055Z,69.50
2018-07-22T02:55:40.303Z,69.90
2018-07-22T02:58:08.532Z,70.70
2018-07-22T03:00:36.779Z,70.40
2018-07-22T03:03:05.189Z,70.10
2018-07-22T03:05:33.417Z,69.90
2018-07-22T03:08:01.695Z,69.80
2018-07-22T03:10:29.917Z,70.10
2018-07-22T03:12:58.145Z,69.20
2018-07-22T03:15:26.380Z,69.10
2018-07-22T03:17:54.859Z,69.60
2018-07-22T03:20:23.096Z,70.20
2018-07-22T03:22:51.348Z,69.20
2018-07-22T03:25:19.615Z,69.20
2018-07-22T03:27:47.817Z,68.70
2018-07-22T03:30:16.167Z,68.80
2018-07-22T03:32:44.475Z,68.30
2018-07-22T03:35:12.708Z,68.20
2018-07-22T03:37:40.946Z,67.90
2018-07-22T03:40:09.273Z,67.40
2018-07-22T03:42:37.503Z,67.10
2018-07-22T03:45:05.970Z,67.20
2018-07-22T03:47:34.181Z,67.20
2018-07-22T03:50:02.413Z,67.30
2018-07-22T03:52:30.638Z,67.00
2018-07-22T03:54:58.876Z,66.90
2018-07-22T03:57:27.203Z,67.10
2018-07-22T03:59:55.424Z,67.20
2018-07-22T04:02:23.697Z,67.90
2018-07-22T04:04:52.035Z,68.60
2018-07-22T04:07:20.273Z,68.30
2018-07-22T04:09:48.488Z,67.90
2018-07-22T04:12:16.712Z,67.60
2018-07-22T04:14:45.548Z,68.90
2018-07-22T04:17:13.857Z,67.60
2018-07-22T04:19:42.861Z,67.40
2018-07-22T04:22:11.061Z,67.70
2018-07-22T04:24:39.470Z,67.90
2018-07-22T04:27:07.876Z,68.00
2018-07-22T04:29:36.169Z,67.90
2018-07-22T04:32:04.434Z,67.90
2018-07-22T04:34:32.682Z,68.50
2018-07-22T04:37:00.937Z,68.70
2018-07-22T04:39:29.180Z,69.00
2018-07-22T04:41:57.408Z,69.50
2018-07-22T04:44:25.655Z,69.60
2018-07-22T04:46:53.900Z,69.60
2018-07-22T04:49:22.114Z,69.80
2018-07-22T04:51:50.345Z,70.30
2018-07-22T04:54:18.765Z,69.30
2018-07-22T04:56:50.917Z,69.30
2018-07-22T04:59:19.205Z,69.40
2018-07-22T05:01:47.441Z,69.10
2018-07-22T05:04:15.738Z,68.90
2018-07-22T05:06:43.987Z,68.80
2018-07-22T05:09:13.023Z,68.70
2018-07-22T05:11:41.548Z,69.00
2018-07-22T05:14:09.777Z,68.80
2018-07-22T05:16:38.611Z,69.40
2018-07-22T05:19:07.297Z,69.00
2018-07-22T05:21:35.557Z,69.00
2018-07-22T05:24:03.850Z,69.00
2018-07-22T05:26:32.098Z,68.60
2018-07-22T05:29:00.364Z,68.30
2018-07-22T05:31:29.532Z,68.60
2018-07-22T05:33:57.781Z,68.70
2018-07-22T05:36:26.350Z,68.50
2018-07-22T05:38:54.585Z,67.80
2018-07-22T05:41:22.852Z,67.30
2018-07-22T05:43:51.284Z,67.00
2018-07-22T05:46:19.535Z,66.60
2018-07-22T05:48:47.761Z,66.20
2018-07-22T05:51:16.028Z,66.00
2018-07-22T05:53:44.359Z,63.20
2018-07-22T05:56:12.611Z,60.50
2018-07-22T05:58:40.852Z,58.50
2018-07-22T06:01:09.106Z,56.70
2018-07-22T06:03:37.324Z,53.90
2018-07-22T06:06:05.694Z,55.30
2018-07-22T06:08:33.951Z,54.00
2018-07-22T06:11:02.589Z,53.40
2018-07-22T06:13:30.837Z,52.50
2018-07-22T06:15:59.249Z,52.60
2018-07-22T06:18:27.549Z,52.00
2018-07-22T06:20:55.786Z,51.50
2018-07-22T06:23:24.764Z,52.00
2018-07-22T06:25:53.004Z,52.10
2018-07-22T06:28:21.253Z,50.30
2018-07-22T06:30:49.521Z,48.40
2018-07-22T06:33:17.805Z,50.80
2018-07-22T06:35:46.053Z,50.10
2018-07-22T06:38:14.571Z,48.60
2018-07-22T06:40:42.822Z,48.70
2018-07-22T06:43:11.042Z,47.20
2018-07-22T06:45:39.270Z,47.40
2018-07-22T06:48:07.569Z,47.20
2018-07-22T06:50:35.949Z,46.20
2018-07-22T06:53:04.243Z,46.30
2018-07-22T06:55:32.500Z,47.10
2018-07-22T06:58:00.732Z,46.70
2018-07-22T07:00:28.988Z,44.20
2018-07-22T07:02:57.223Z,44.30
2018-07-22T07:05:25.535Z,44.50
2018-07-22T07:07:53.701Z,46.50
2018-07-22T07:10:22.140Z,44.70
2018-07-22T07:12:50.418Z,43.30
2018-07-22T07:15:18.760Z,44.40
2018-07-22T07:17:46.990Z,42.70
2018-07-22T07:20:15.285Z,43.40
2018-07-22T07:25:18.320Z,42.20
2018-07-22T07:27:46.609Z,42.40
2018-07-22T07:30:14.898Z,39.50
2018-07-22T07:32:43.172Z,42.10
2018-07-22T07:35:11.435Z,43.20
2018-07-22T07:37:39.894Z,45.10
2018-07-22T07:40:08.206Z,44.90
2018-07-22T07:42:36.502Z,43.00
2018-07-22T07:45:05.268Z,43.50
2018-07-22T07:47:33.612Z,42.20
2018-07-22T07:50:02.385Z,41.10
2018-07-22T07:52:30.633Z,41.10
2018-07-22T07:54:59.293Z,39.70
2018-07-22T07:57:27.572Z,39.80
2018-07-22T07:59:55.860Z,39.30
2018-07-22T08:02:25.652Z,39.30
2018-07-22T08:04:54.864Z,37.50
2018-07-22T08:07:23.134Z,38.10
2018-07-22T08:09:51.421Z,37.10
2018-07-22T08:12:19.649Z,37.10
2018-07-22T08:14:47.975Z,37.50
2018-07-22T08:17:16.292Z,37.30
2018-07-22T08:19:44.748Z,36.30
2018-07-22T08:22:13.027Z,35.80
2018-07-22T08:24:41.299Z,36.70
2018-07-22T08:27:10.166Z,37.10
2018-07-22T08:29:38.393Z,38.20
2018-07-22T08:32:07.229Z,37.70
2018-07-22T08:34:35.499Z,37.50
2018-07-22T08:37:04.309Z,37.70
2018-07-22T08:39:33.272Z,37.10
2018-07-22T08:42:01.943Z,36.10
2018-07-22T08:44:30.189Z,36.50
2018-07-22T08:46:58.502Z,36.10
2018-07-22T08:49:26.766Z,37.00
2018-07-22T08:51:54.991Z,36.70
2018-07-22T08:54:23.301Z,36.80
2018-07-22T08:56:51.591Z,37.00
2018-07-22T08:59:19.916Z,37.50
2018-07-22T09:01:48.208Z,37.30
2018-07-22T09:04:16.500Z,37.50
2018-07-22T09:06:44.738Z,36.60
2018-07-22T09:09:13.099Z,36.30
2018-07-22T09:11:41.386Z,35.80
2018-07-22T09:14:10.267Z,34.60
2018-07-22T09:16:38.525Z,35.60
2018-07-22T09:19:06.773Z,33.60
2018-07-22T09:21:34.988Z,35.20
2018-07-22T09:24:03.250Z,35.20
2018-07-22T09:26:31.497Z,34.70
2018-07-22T09:28:59.745Z,33.40
2018-07-22T09:31:28.001Z,34.80
2018-07-22T09:33:56.277Z,34.70
2018-07-22T09:36:24.563Z,34.20
2018-07-22T09:38:52.854Z,32.70
2018-07-22T09:41:21.130Z,33.10
2018-07-22T09:43:49.421Z,34.70
2018-07-22T09:46:17.851Z,33.00
2018-07-22T09:48:46.091Z,34.00
2018-07-22T09:51:14.401Z,33.10
2018-07-22T09:53:42.699Z,33.70
2018-07-22T09:56:10.899Z,33.10
2018-07-22T09:58:39.187Z,33.00
2018-07-22T10:01:07.452Z,33.00
2018-07-22T10:03:35.785Z,33.20
2018-07-22T10:06:04.089Z,34.00
2018-07-22T10:08:32.351Z,34.30
2018-07-22T10:11:00.630Z,33.70
2018-07-22T10:13:28.911Z,33.10
2018-07-22T10:15:57.256Z,33.60
2018-07-22T10:18:25.829Z,32.60
2018-07-22T10:20:54.061Z,33.40
2018-07-22T10:23:23.508Z,33.20
2018-07-22T10:25:51.896Z,32.20
2018-07-22T10:28:20.137Z,33.20
2018-07-22T10:30:48.696Z,31.90
2018-07-22T10:33:16.992Z,33.50
2018-07-22T10:35:45.309Z,32.60
2018-07-22T10:38:13.521Z,32.40
2018-07-22T10:40:41.833Z,31.90
2018-07-22T10:43:10.297Z,32.20
2018-07-22T10:45:38.662Z,32.20
2018-07-22T10:48:06.930Z,33.10
2018-07-22T10:50:35.188Z,33.10
2018-07-22T10:53:03.460Z,32.40
2018-07-22T10:55:31.677Z,33.20
2018-07-22T10:57:59.912Z,32.30
2018-07-22T11:00:28.177Z,32.90
2018-07-22T11:02:56.457Z,32.90
2018-07-22T11:05:24.748Z,33.50
2018-07-22T11:07:53.023Z,33.60
2018-07-22T11:10:21.304Z,33.60
2018-07-22T11:12:49.601Z,33.70
2018-07-22T11:15:17.915Z,33.80
2018-07-22T11:17:46.269Z,33.70
2018-07-22T11:20:14.608Z,34.40
2018-07-22T11:22:42.860Z,33.60
2018-07-22T11:25:11.095Z,33.70
2018-07-22T11:27:39.338Z,33.80
2018-07-22T11:30:07.606Z,34.00
2018-07-22T11:32:35.833Z,34.30
2018-07-22T11:37:32.311Z,34.80
2018-07-22T11:40:00.570Z,35.10
2018-07-22T11:42:28.809Z,35.00
2018-07-22T11:44:57.113Z,35.00
2018-07-22T11:47:25.417Z,35.10
2018-07-22T11:49:53.715Z,35.70
2018-07-22T11:52:21.955Z,36.70
2018-07-22T11:54:50.229Z,36.40
2018-07-22T11:57:18.466Z,37.00
2018-07-22T11:59:46.748Z,37.10
2018-07-22T12:02:15.032Z,37.60
2018-07-22T12:04:43.343Z,38.00
2018-07-22T12:07:11.613Z,38.50
2018-07-22T12:09:39.846Z,38.40
2018-07-22T12:12:08.148Z,38.50
2018-07-22T12:14:36.368Z,38.50
2018-07-22T12:17:05.615Z,38.30
2018-07-22T12:19:33.926Z,38.60
2018-07-22T12:22:02.173Z,38.00
2018-07-22T12:24:30.426Z,35.40
2018-07-22T12:26:58.709Z,36.30
2018-07-22T12:29:26.997Z,36.00
2018-07-22T12:31:55.609Z,36.00
2018-07-22T12:34:23.842Z,35.20
2018-07-22T12:36:52.077Z,36.80
2018-07-22T12:39:20.442Z,36.00
2018-07-22T12:41:48.677Z,37.20
2018-07-22T12:44:16.986Z,36.30
2018-07-22T12:46:45.222Z,36.10
2018-07-22T12:49:13.485Z,35.10
2018-07-22T12:51:41.750Z,33.10
2018-07-22T12:54:10.007Z,31.50
2018-07-22T12:56:38.371Z,31.10
2018-07-22T12:59:06.630Z,30.90
2018-07-22T13:01:34.846Z,32.30
2018-07-22T13:04:03.415Z,33.90
2018-07-22T13:06:31.672Z,35.10
2018-07-22T13:08:59.894Z,35.40
2018-07-22T13:11:28.194Z,35.60
2018-07-22T13:13:56.453Z,35.80
2018-07-22T13:16:24.683Z,35.70
2018-07-22T13:18:52.978Z,36.40
2018-07-22T13:21:21.165Z,37.40
2018-07-22T13:23:49.402Z,37.90
2018-07-22T13:26:17.636Z,38.50
2018-07-22T13:28:45.934Z,39.50
2018-07-22T13:31:14.163Z,39.90
2018-07-22T13:33:42.379Z,39.60
2018-07-22T13:36:10.630Z,39.80
2018-07-22T13:38:38.869Z,40.00
2018-07-22T13:41:07.147Z,41.70
2018-07-22T13:43:35.410Z,40.90
2018-07-22T13:46:03.647Z,40.30
2018-07-22T13:48:31.889Z,40.00
2018-07-22T13:51:00.163Z,40.10
2018-07-22T13:53:28.446Z,41.60
2018-07-22T13:55:56.712Z,43.50
2018-07-22T13:58:25.028Z,43.60
2018-07-22T14:00:53.263Z,43.90
2018-07-22T14:03:21.559Z,43.10
2018-07-22T14:05:49.816Z,44.20
2018-07-22T14:08:18.117Z,44.70
2018-07-22T14:10:46.389Z,45.10
2018-07-22T14:13:14.644Z,45.70
2018-07-22T14:15:42.976Z,45.60
2018-07-22T14:18:11.170Z,45.80
2018-07-22T14:20:39.433Z,46.20
2018-07-22T14:23:14.112Z,46.50
2018-07-22T14:25:42.373Z,46.90
2018-07-22T14:28:10.780Z,47.00
2018-07-22T14:30:39.017Z,46.00
2018-07-22T14:33:07.393Z,45.10
2018-07-22T14:35:35.626Z,45.80
2018-07-22T14:38:04.088Z,45.30
2018-07-22T14:40:32.370Z,45.50
2018-07-22T14:43:00.625Z,44.80
2018-07-22T14:45:28.889Z,44.90
2018-07-22T14:47:57.147Z,45.10
2018-07-22T14:50:25.371Z,45.20
2018-07-22T14:52:53.654Z,45.00
2018-07-22T14:55:21.948Z,46.20
2018-07-22T14:57:50.203Z,47.10
2018-07-22T15:00:24.915Z,46.60
2018-07-22T15:02:53.140Z,46.20
2018-07-22T15:05:21.450Z,45.50
2018-07-22T15:07:49.686Z,45.50
2018-07-22T15:10:17.953Z,45.00
2018-07-22T15:12:46.192Z,44.70
2018-07-22T15:15:14.541Z,44.40
2018-07-22T15:17:43.028Z,44.90
2018-07-22T15:20:11.261Z,45.10
2018-07-22T15:22:39.569Z,44.80
2018-07-22T15:25:07.826Z,44.90
2018-07-22T15:27:36.309Z,45.30
2018-07-22T15:30:05.160Z,45.80
2018-07-22T15:32:33.457Z,45.80
2018-07-22T15:35:01.693Z,46.20
2018-07-22T15:37:29.977Z,46.30
2018-07-22T15:39:58.240Z,46.50
2018-07-22T15:42:26.469Z,46.50
2018-07-22T15:44:54.736Z,46.70
2018-07-22T15:47:22.999Z,46.80
2018-07-22T15:49:51.215Z,46.50
2018-07-22T15:52:19.485Z,45.90
2018-07-22T15:54:47.808Z,46.40
2018-07-22T15:57:16.092Z,46.00
2018-07-22T15:59:44.385Z,46.40
2018-07-22T16:02:12.614Z,45.80
2018-07-22T16:04:40.950Z,44.90
2018-07-22T16:07:09.220Z,44.70
2018-07-22T16:09:37.460Z,45.20
2018-07-22T16:12:05.964Z,46.40
2018-07-22T16:14:34.208Z,45.50
2018-07-22T16:17:02.653Z,46.00
2018-07-22T16:19:30.972Z,46.40
2018-07-22T16:21:59.240Z,46.30
2018-07-22T16:24:27.509Z,47.30
2018-07-22T16:26:55.757Z,46.30
2018-07-22T16:29:24.359Z,46.50
2018-07-22T16:31:52.670Z,46.80
2018-07-22T16:34:20.895Z,46.30
2018-07-22T16:36:49.153Z,47.20
2018-07-22T16:39:17.635Z,46.60
2018-07-22T16:41:45.900Z,46.30
2018-07-22T16:44:14.397Z,46.30
2018-07-22T16:46:42.617Z,45.90
2018-07-22T16:49:10.849Z,45.90
2018-07-22T16:51:39.358Z,46.50
2018-07-22T16:54:07.632Z,47.10
2018-07-22T16:56:37.391Z,48.00
2018-07-22T16:59:05.640Z,48.00
2018-07-22T17:01:33.880Z,47.90
2018-07-22T17:04:02.189Z,46.80
2018-07-22T17:06:30.453Z,46.90
2018-07-22T17:09:06.703Z,46.30
2018-07-22T17:11:34.970Z,46.90
2018-07-22T17:14:03.223Z,45.70
2018-07-22T17:16:31.543Z,45.70
2018-07-22T17:18:59.826Z,45.60
2018-07-22T17:21:28.054Z,46.00
2018-07-22T17:23:56.536Z,46.20
2018-07-22T17:26:24.857Z,46.20
2018-07-22T17:28:53.096Z,45.80
2018-07-22T17:31:21.373Z,46.00
2018-07-22T17:33:49.616Z,46.00
2018-07-22T17:36:18.145Z,46.30
2018-07-22T17:38:46.383Z,45.60
2018-07-22T17:41:14.665Z,45.40
2018-07-22T17:43:42.940Z,45.50
2018-07-22T17:46:11.153Z,45.20
2018-07-22T17:48:39.495Z,47.20
2018-07-22T17:51:07.735Z,47.80
2018-07-22T17:53:36.072Z,47.90
2018-07-22T17:56:04.337Z,47.70
2018-07-22T17:58:32.617Z,48.60
2018-07-22T18:01:00.859Z,48.20
2018-07-22T18:03:30.280Z,47.90
2018-07-22T18:05:58.565Z,47.50
2018-07-22T18:08:26.853Z,47.10
2018-07-22T18:10:55.727Z,47.50
2018-07-22T18:13:23.967Z,47.80
2018-07-22T18:18:20.942Z,48.40
2018-07-22T18:20:49.824Z,49.40
2018-07-22T18:23:18.642Z,50.50
2018-07-22T18:25:47.229Z,49.70
2018-07-22T18:28:16.133Z,50.70
2018-07-22T18:30:45.017Z,50.30
2018-07-22T18:33:13.290Z,50.50
2018-07-22T18:35:41.528Z,51.20
2018-07-22T18:38:09.851Z,52.70
2018-07-22T18:40:38.141Z,52.70
2018-07-22T18:43:06.365Z,52.60
2018-07-22T18:45:35.619Z,52.50
2018-07-22T18:48:04.837Z,52.50
2018-07-22T18:50:33.145Z,53.30
2018-07-22T18:53:01.387Z,54.30
2018-07-22T18:55:29.663Z,54.80
2018-07-22T18:57:57.904Z,55.00
2018-07-22T19:00:26.173Z,55.00
2018-07-22T19:02:54.448Z,55.10
2018-07-22T19:05:22.769Z,55.70
2018-07-22T19:07:50.989Z,55.60
2018-07-22T19:10:19.302Z,56.10
2018-07-22T19:12:47.608Z,55.80
2018-07-22T19:15:15.911Z,56.40
2018-07-22T19:17:44.301Z,55.50
2018-07-22T19:20:12.570Z,55.50
2018-07-22T19:22:40.795Z,55.80
2018-07-22T19:25:09.097Z,55.70
2018-07-22T19:27:37.366Z,55.80
2018-07-22T19:30:06.093Z,55.70
2018-07-22T19:32:34.369Z,55.60
2018-07-22T19:35:02.625Z,56.20
2018-07-22T19:37:30.944Z,55.70
2018-07-22T19:39:59.244Z,55.60
2018-07-22T19:42:27.462Z,55.50
2018-07-22T19:44:55.685Z,55.40
2018-07-22T19:47:23.989Z,56.80
2018-07-22T19:49:52.226Z,56.40
2018-07-22T19:52:20.554Z,56.40
2018-07-22T19:54:48.838Z,55.90
2018-07-22T19:57:18.068Z,56.70
2018-07-22T19:59:46.316Z,56.20
2018-07-22T20:02:14.612Z,56.20
2018-07-22T20:04:42.857Z,56.70
2018-07-22T20:07:11.095Z,56.80
2018-07-22T20:09:39.355Z,56.80
2018-07-22T20:12:07.874Z,57.00
2018-07-22T20:14:36.120Z,57.00
2018-07-22T20:17:04.446Z,56.30
2018-07-22T20:19:32.929Z,56.40
2018-07-22T20:22:01.215Z,56.60
2018-07-22T20:24:29.476Z,56.50
2018-07-22T20:26:58.033Z,56.30
2018-07-22T20:29:26.304Z,56.50
2018-07-22T20:31:54.565Z,56.30
2018-07-22T20:34:22.816Z,56.50
2018-07-22T20:36:51.078Z,56.90
2018-07-22T20:39:19.369Z,56.70
2018-07-22T20:41:47.658Z,57.40
2018-07-22T20:44:15.932Z,57.60
2018-07-22T20:46:44.217Z,57.30
2018-07-22T20:49:12.477Z,57.00
2018-07-22T20:51:40.698Z,57.00
2018-07-22T20:54:08.936Z,56.90
2018-07-22T20:56:37.175Z,56.70
2018-07-22T20:59:05.524Z,56.70
2018-07-22T21:01:33.769Z,56.70
2018-07-22T21:04:02.097Z,56.60
2018-07-22T21:06:30.418Z,56.50
2018-07-22T21:08:58.675Z,56.80
2018-07-22T21:11:35.893Z,57.10
2018-07-22T21:14:04.698Z,57.10
2018-07-22T21:16:32.949Z,57.30
2018-07-22T21:19:03.082Z,57.40
2018-07-22T21:21:31.334Z,57.40
2018-07-22T21:23:59.570Z,57.50
2018-07-22T21:26:27.840Z,57.50
2018-07-22T21:28:56.110Z,57.80
2018-07-22T21:31:24.434Z,58.10
2018-07-22T21:33:52.690Z,58.00
2018-07-22T21:36:20.918Z,57.70
2018-07-22T21:38:49.241Z,57.40
2018-07-22T21:41:17.476Z,57.70
2018-07-22T21:43:45.709Z,57.10
2018-07-22T21:46:13.992Z,56.50
2018-07-22T21:48:42.236Z,56.30
2018-07-22T21:51:10.520Z,56.20
2018-07-22T21:53:38.800Z,56.00
2018-07-22T21:56:07.045Z,56.60
2018-07-22T21:58:35.329Z,56.70
2018-07-22T22:01:03.617Z,56.80
2018-07-22T22:03:31.894Z,56.90
2018-07-22T22:06:00.174Z,56.90
2018-07-22T22:08:28.425Z,56.20
2018-07-22T22:10:56.670Z,56.10
2018-07-22T22:13:24.917Z,56.20
2018-07-22T22:15:53.359Z,57.10
2018-07-22T22:18:21.585Z,57.90
2018-07-22T22:20:49.833Z,58.50
2018-07-22T22:23:18.093Z,58.90
2018-07-22T22:25:46.329Z,58.80
2018-07-22T22:28:14.569Z,58.70
2018-07-22T22:30:42.860Z,58.50
2018-07-22T22:33:11.110Z,58.60
2018-07-22T22:35:39.361Z,59.30
2018-07-22T22:38:07.682Z,60.00
2018-07-22T22:40:35.932Z,59.20
2018-07-22T22:43:04.209Z,60.50
2018-07-22T22:45:32.445Z,59.60
2018-07-22T22:48:00.716Z,59.70
2018-07-22T22:50:28.946Z,59.70
2018-07-22T22:52:57.196Z,59.90
2018-07-22T22:55:25.420Z,59.50
2018-07-22T22:58:05.061Z,59.30
2018-07-22T23:00:33.325Z,58.50
2018-07-22T23:03:01.570Z,58.10
2018-07-22T23:05:29.830Z,57.70
2018-07-22T23:07:58.316Z,57.50
2018-07-22T23:10:26.575Z,58.10
2018-07-22T23:12:54.798Z,58.20
2018-07-22T23:15:23.013Z,58.50
2018-07-22T23:17:51.253Z,58.20
2018-07-22T23:20:19.506Z,58.00
2018-07-22T23:22:47.746Z,58.80
2018-07-22T23:25:15.970Z,59.00
2018-07-22T23:27:44.237Z,59.40
2018-07-22T23:30:12.486Z,59.40
2018-07-22T23:32:40.721Z,58.60
2018-07-22T23:35:09.830Z,58.40
2018-07-22T23:37:38.041Z,58.30
2018-07-22T23:40:06.268Z,58.50
2018-07-22T23:42:34.518Z,58.30
2018-07-22T23:45:02.768Z,58.00
2018-07-22T23:47:31.052Z,57.40
2018-07-22T23:49:59.289Z,57.30
2018-07-22T23:52:27.559Z,56.90
2018-07-22T23:54:55.800Z,56.70
2018-07-22T23:57:24.070Z,56.30
2018-07-22T23:59:52.304Z,56.50
